sensor_id;sensor_type;location;lat;lon;timestamp;temperature;humidity
38784;DHT22;24531;45.502;12.238;2023-08-24T00:00:41;31.00;80.80
38784;DHT22;24531;45.502;12.238;2023-08-24T00:03:07;30.90;80.60
38784;DHT22;24531;45.502;12.238;2023-08-24T00:05:34;30.90;80.70
38784;DHT22;24531;45.502;12.238;2023-08-24T00:08:06;30.90;80.70
38784;DHT22;24531;45.502;12.238;2023-08-24T00:10:32;30.80;80.70
38784;DHT22;24531;45.502;12.238;2023-08-24T00:12:58;30.80;80.70
38784;DHT22;24531;45.502;12.238;2023-08-24T00:15:23;30.80;80.70
38784;DHT22;24531;45.502;12.238;2023-08-24T00:17:49;30.80;80.90
38784;DHT22;24531;45.502;12.238;2023-08-24T00:20:15;30.70;80.80
38784;DHT22;24531;45.502;12.238;2023-08-24T00:22:41;30.70;80.80
38784;DHT22;24531;45.502;12.238;2023-08-24T00:25:07;30.70;80.80
38784;DHT22;24531;45.502;12.238;2023-08-24T00:27:34;30.70;80.90
38784;DHT22;24531;45.502;12.238;2023-08-24T00:30:02;30.70;80.90
38784;DHT22;24531;45.502;12.238;2023-08-24T00:32:29;30.60;80.80
38784;DHT22;24531;45.502;12.238;2023-08-24T00:34:56;30.60;80.80
38784;DHT22;24531;45.502;12.238;2023-08-24T00:37:21;30.60;81.00
38784;DHT22;24531;45.502;12.238;2023-08-24T00:39:47;30.70;81.10
38784;DHT22;24531;45.502;12.238;2023-08-24T00:42:12;30.60;81.00
38784;DHT22;24531;45.502;12.238;2023-08-24T00:44:41;30.60;81.00
38784;DHT22;24531;45.502;12.238;2023-08-24T00:47:07;30.60;81.00
38784;DHT22;24531;45.502;12.238;2023-08-24T00:49:33;30.60;81.00
38784;DHT22;24531;45.502;12.238;2023-08-24T00:51:59;30.50;80.80
38784;DHT22;24531;45.502;12.238;2023-08-24T00:54:25;30.50;81.10
38784;DHT22;24531;45.502;12.238;2023-08-24T00:56:52;30.50;81.20
38784;DHT22;24531;45.502;12.238;2023-08-24T00:59:18;30.50;81.30
38784;DHT22;24531;45.502;12.238;2023-08-24T01:01:45;30.50;81.30
38784;DHT22;24531;45.502;12.238;2023-08-24T01:04:12;30.50;81.20
38784;DHT22;24531;45.502;12.238;2023-08-24T01:06:38;30.40;81.20
38784;DHT22;24531;45.502;12.238;2023-08-24T01:09:04;30.50;81.50
38784;DHT22;24531;45.502;12.238;2023-08-24T01:12:02;30.50;81.30
38784;DHT22;24531;45.502;12.238;2023-08-24T01:16:58;30.40;81.00
38784;DHT22;24531;45.502;12.238;2023-08-24T01:21:54;30.40;81.10
38784;DHT22;24531;45.502;12.238;2023-08-24T01:24:41;30.50;82.10
38784;DHT22;24531;45.502;12.238;2023-08-24T01:27:10;30.50;81.50
38784;DHT22;24531;45.502;12.238;2023-08-24T01:29:38;30.40;81.20
38784;DHT22;24531;45.502;12.238;2023-08-24T01:32:09;30.40;81.30
38784;DHT22;24531;45.502;12.238;2023-08-24T01:34:37;30.40;81.30
38784;DHT22;24531;45.502;12.238;2023-08-24T01:37:03;30.40;81.20
38784;DHT22;24531;45.502;12.238;2023-08-24T01:39:36;30.30;81.30
38784;DHT22;24531;45.502;12.238;2023-08-24T01:42:05;30.30;81.50
38784;DHT22;24531;45.502;12.238;2023-08-24T01:44:35;30.30;81.50
38784;DHT22;24531;45.502;12.238;2023-08-24T01:47:04;30.30;81.50
38784;DHT22;24531;45.502;12.238;2023-08-24T01:49:31;30.30;81.50
38784;DHT22;24531;45.502;12.238;2023-08-24T01:51:58;30.30;81.70
38784;DHT22;24531;45.502;12.238;2023-08-24T01:54:24;30.30;81.80
38784;DHT22;24531;45.502;12.238;2023-08-24T01:56:50;30.30;81.90
38784;DHT22;24531;45.502;12.238;2023-08-24T01:59:15;30.30;82.00
38784;DHT22;24531;45.502;12.238;2023-08-24T02:01:41;30.30;82.00
38784;DHT22;24531;45.502;12.238;2023-08-24T02:04:06;30.30;82.20
38784;DHT22;24531;45.502;12.238;2023-08-24T02:06:32;30.20;82.10
38784;DHT22;24531;45.502;12.238;2023-08-24T02:08:58;30.20;82.30
38784;DHT22;24531;45.502;12.238;2023-08-24T02:11:23;30.20;82.40
38784;DHT22;24531;45.502;12.238;2023-08-24T02:13:49;30.20;82.50
38784;DHT22;24531;45.502;12.238;2023-08-24T02:16:14;30.10;82.50
38784;DHT22;24531;45.502;12.238;2023-08-24T02:18:40;30.10;82.70
38784;DHT22;24531;45.502;12.238;2023-08-24T02:21:09;30.10;82.80
38784;DHT22;24531;45.502;12.238;2023-08-24T02:23:37;30.20;82.90
38784;DHT22;24531;45.502;12.238;2023-08-24T02:26:02;30.20;82.80
38784;DHT22;24531;45.502;12.238;2023-08-24T02:28:29;30.20;82.80
38784;DHT22;24531;45.502;12.238;2023-08-24T02:30:54;30.20;82.90
38784;DHT22;24531;45.502;12.238;2023-08-24T02:33:20;30.20;82.90
38784;DHT22;24531;45.502;12.238;2023-08-24T02:35:49;30.20;82.90
38784;DHT22;24531;45.502;12.238;2023-08-24T02:38:14;30.20;83.10
38784;DHT22;24531;45.502;12.238;2023-08-24T02:40:40;30.10;82.90
38784;DHT22;24531;45.502;12.238;2023-08-24T02:43:05;30.10;83.00
38784;DHT22;24531;45.502;12.238;2023-08-24T02:45:31;30.10;83.30
38784;DHT22;24531;45.502;12.238;2023-08-24T02:47:56;30.10;83.20
38784;DHT22;24531;45.502;12.238;2023-08-24T02:50:22;30.10;83.60
38784;DHT22;24531;45.502;12.238;2023-08-24T02:52:48;30.00;83.50
38784;DHT22;24531;45.502;12.238;2023-08-24T02:55:13;30.00;83.50
38784;DHT22;24531;45.502;12.238;2023-08-24T02:57:39;29.90;83.60
38784;DHT22;24531;45.502;12.238;2023-08-24T03:00:06;29.90;83.80
38784;DHT22;24531;45.502;12.238;2023-08-24T03:02:32;30.00;83.90
38784;DHT22;24531;45.502;12.238;2023-08-24T03:04:58;30.00;83.90
38784;DHT22;24531;45.502;12.238;2023-08-24T03:07:24;29.90;83.80
38784;DHT22;24531;45.502;12.238;2023-08-24T03:09:49;30.00;83.90
38784;DHT22;24531;45.502;12.238;2023-08-24T03:12:15;29.90;83.80
38784;DHT22;24531;45.502;12.238;2023-08-24T03:14:40;29.90;83.90
38784;DHT22;24531;45.502;12.238;2023-08-24T03:17:06;29.90;83.80
38784;DHT22;24531;45.502;12.238;2023-08-24T03:19:32;29.90;84.00
38784;DHT22;24531;45.502;12.238;2023-08-24T03:21:58;29.90;84.10
38784;DHT22;24531;45.502;12.238;2023-08-24T03:24:24;29.90;84.10
38784;DHT22;24531;45.502;12.238;2023-08-24T03:26:49;29.90;84.20
38784;DHT22;24531;45.502;12.238;2023-08-24T03:29:15;29.80;84.10
38784;DHT22;24531;45.502;12.238;2023-08-24T03:31:40;29.80;84.40
38784;DHT22;24531;45.502;12.238;2023-08-24T03:34:06;29.70;84.60
38784;DHT22;24531;45.502;12.238;2023-08-24T03:36:32;29.70;84.80
38784;DHT22;24531;45.502;12.238;2023-08-24T03:38:57;29.70;84.90
38784;DHT22;24531;45.502;12.238;2023-08-24T03:41:23;29.70;85.00
38784;DHT22;24531;45.502;12.238;2023-08-24T03:43:49;29.70;85.20
38784;DHT22;24531;45.502;12.238;2023-08-24T03:46:14;29.70;85.20
38784;DHT22;24531;45.502;12.238;2023-08-24T03:48:40;29.70;85.30
38784;DHT22;24531;45.502;12.238;2023-08-24T03:51:06;29.70;85.30
38784;DHT22;24531;45.502;12.238;2023-08-24T03:53:31;29.60;85.40
38784;DHT22;24531;45.502;12.238;2023-08-24T03:55:57;29.60;85.60
38784;DHT22;24531;45.502;12.238;2023-08-24T03:58:23;29.60;85.70
38784;DHT22;24531;45.502;12.238;2023-08-24T04:00:49;29.60;85.80
38784;DHT22;24531;45.502;12.238;2023-08-24T04:03:15;29.60;85.80
38784;DHT22;24531;45.502;12.238;2023-08-24T04:05:41;29.60;85.90
38784;DHT22;24531;45.502;12.238;2023-08-24T04:08:06;29.60;86.00
38784;DHT22;24531;45.502;12.238;2023-08-24T04:10:32;29.60;86.00
38784;DHT22;24531;45.502;12.238;2023-08-24T04:12:58;29.60;86.00
38784;DHT22;24531;45.502;12.238;2023-08-24T04:15:24;29.50;86.10
38784;DHT22;24531;45.502;12.238;2023-08-24T04:17:50;29.40;86.50
38784;DHT22;24531;45.502;12.238;2023-08-24T04:20:15;29.40;87.50
38784;DHT22;24531;45.502;12.238;2023-08-24T04:22:41;29.50;86.80
38784;DHT22;24531;45.502;12.238;2023-08-24T04:25:07;29.40;86.80
38784;DHT22;24531;45.502;12.238;2023-08-24T04:27:33;29.40;86.90
38784;DHT22;24531;45.502;12.238;2023-08-24T04:29:59;29.40;87.80
38784;DHT22;24531;45.502;12.238;2023-08-24T04:32:26;29.40;86.90
38784;DHT22;24531;45.502;12.238;2023-08-24T04:34:52;29.50;86.90
38784;DHT22;24531;45.502;12.238;2023-08-24T04:37:17;29.50;86.80
38784;DHT22;24531;45.502;12.238;2023-08-24T04:39:43;29.50;86.70
38784;DHT22;24531;45.502;12.238;2023-08-24T04:42:09;29.50;86.80
38784;DHT22;24531;45.502;12.238;2023-08-24T04:44:34;29.50;86.90
38784;DHT22;24531;45.502;12.238;2023-08-24T04:47:00;29.50;86.90
38784;DHT22;24531;45.502;12.238;2023-08-24T04:49:25;29.50;87.00
38784;DHT22;24531;45.502;12.238;2023-08-24T04:51:51;29.50;87.00
38784;DHT22;24531;45.502;12.238;2023-08-24T04:54:17;29.50;87.00
38784;DHT22;24531;45.502;12.238;2023-08-24T04:56:43;29.50;87.10
38784;DHT22;24531;45.502;12.238;2023-08-24T04:59:08;29.50;87.20
38784;DHT22;24531;45.502;12.238;2023-08-24T05:01:34;29.50;87.30
38784;DHT22;24531;45.502;12.238;2023-08-24T05:04:00;29.50;87.30
38784;DHT22;24531;45.502;12.238;2023-08-24T05:06:25;29.50;87.30
38784;DHT22;24531;45.502;12.238;2023-08-24T05:08:51;29.50;87.20
38784;DHT22;24531;45.502;12.238;2023-08-24T05:11:18;29.50;87.00
38784;DHT22;24531;45.502;12.238;2023-08-24T05:13:44;29.50;86.90
38784;DHT22;24531;45.502;12.238;2023-08-24T05:16:11;29.60;87.00
38784;DHT22;24531;45.502;12.238;2023-08-24T05:18:37;29.60;87.00
38784;DHT22;24531;45.502;12.238;2023-08-24T05:21:03;29.60;87.00
38784;DHT22;24531;45.502;12.238;2023-08-24T05:23:30;29.70;87.00
38784;DHT22;24531;45.502;12.238;2023-08-24T05:25:59;29.70;86.90
38784;DHT22;24531;45.502;12.238;2023-08-24T05:28:29;29.80;87.10
38784;DHT22;24531;45.502;12.238;2023-08-24T05:30:55;29.80;87.00
38784;DHT22;24531;45.502;12.238;2023-08-24T05:33:22;29.80;87.00
38784;DHT22;24531;45.502;12.238;2023-08-24T05:35:48;29.80;87.00
38784;DHT22;24531;45.502;12.238;2023-08-24T05:38:14;29.90;86.90
38784;DHT22;24531;45.502;12.238;2023-08-24T05:40:41;29.90;86.90
38784;DHT22;24531;45.502;12.238;2023-08-24T05:43:11;30.00;86.90
38784;DHT22;24531;45.502;12.238;2023-08-24T05:45:36;30.00;86.70
38784;DHT22;24531;45.502;12.238;2023-08-24T05:48:05;30.00;86.60
38784;DHT22;24531;45.502;12.238;2023-08-24T05:50:30;30.10;86.60
38784;DHT22;24531;45.502;12.238;2023-08-24T05:52:56;30.10;86.50
38784;DHT22;24531;45.502;12.238;2023-08-24T05:55:22;30.10;86.50
38784;DHT22;24531;45.502;12.238;2023-08-24T05:57:48;30.10;86.00
38784;DHT22;24531;45.502;12.238;2023-08-24T06:00:14;30.10;85.90
38784;DHT22;24531;45.502;12.238;2023-08-24T06:02:39;30.10;85.80
38784;DHT22;24531;45.502;12.238;2023-08-24T06:05:06;30.10;85.90
38784;DHT22;24531;45.502;12.238;2023-08-24T06:07:33;30.20;86.10
38784;DHT22;24531;45.502;12.238;2023-08-24T06:09:59;30.30;86.20
38784;DHT22;24531;45.502;12.238;2023-08-24T06:12:24;30.30;86.20
38784;DHT22;24531;45.502;12.238;2023-08-24T06:14:50;30.40;86.30
38784;DHT22;24531;45.502;12.238;2023-08-24T06:17:16;30.50;86.00
38784;DHT22;24531;45.502;12.238;2023-08-24T06:19:42;30.60;85.90
38784;DHT22;24531;45.502;12.238;2023-08-24T06:22:08;30.70;85.80
38784;DHT22;24531;45.502;12.238;2023-08-24T06:24:34;30.80;85.50
38784;DHT22;24531;45.502;12.238;2023-08-24T06:27:00;30.90;85.20
38784;DHT22;24531;45.502;12.238;2023-08-24T06:29:30;31.00;85.00
38784;DHT22;24531;45.502;12.238;2023-08-24T06:31:56;30.90;84.70
38784;DHT22;24531;45.502;12.238;2023-08-24T06:34:22;31.00;84.70
38784;DHT22;24531;45.502;12.238;2023-08-24T06:36:48;31.10;84.80
38784;DHT22;24531;45.502;12.238;2023-08-24T06:39:13;31.10;84.60
38784;DHT22;24531;45.502;12.238;2023-08-24T06:41:39;31.20;84.50
38784;DHT22;24531;45.502;12.238;2023-08-24T06:44:04;31.30;84.40
38784;DHT22;24531;45.502;12.238;2023-08-24T06:46:31;31.30;84.20
38784;DHT22;24531;45.502;12.238;2023-08-24T06:48:57;31.40;83.90
38784;DHT22;24531;45.502;12.238;2023-08-24T06:51:22;31.50;83.50
38784;DHT22;24531;45.502;12.238;2023-08-24T06:53:48;31.60;83.40
38784;DHT22;24531;45.502;12.238;2023-08-24T06:56:14;31.70;83.30
38784;DHT22;24531;45.502;12.238;2023-08-24T06:58:44;31.80;83.20
38784;DHT22;24531;45.502;12.238;2023-08-24T07:01:10;32.00;83.10
38784;DHT22;24531;45.502;12.238;2023-08-24T07:03:36;32.10;83.00
38784;DHT22;24531;45.502;12.238;2023-08-24T07:06:02;32.20;82.60
38784;DHT22;24531;45.502;12.238;2023-08-24T07:08:28;32.40;82.50
38784;DHT22;24531;45.502;12.238;2023-08-24T07:10:54;32.60;82.10
38784;DHT22;24531;45.502;12.238;2023-08-24T07:13:20;32.70;81.80
38784;DHT22;24531;45.502;12.238;2023-08-24T07:15:46;32.80;81.50
38784;DHT22;24531;45.502;12.238;2023-08-24T07:18:11;32.90;82.00
38784;DHT22;24531;45.502;12.238;2023-08-24T07:20:37;33.10;80.80
38784;DHT22;24531;45.502;12.238;2023-08-24T07:23:03;33.20;80.50
38784;DHT22;24531;45.502;12.238;2023-08-24T07:25:29;33.40;80.30
38784;DHT22;24531;45.502;12.238;2023-08-24T07:27:55;33.60;80.10
38784;DHT22;24531;45.502;12.238;2023-08-24T07:30:25;33.70;79.60
38784;DHT22;24531;45.502;12.238;2023-08-24T07:32:51;34.00;78.70
38784;DHT22;24531;45.502;12.238;2023-08-24T07:35:17;34.10;78.30
38784;DHT22;24531;45.502;12.238;2023-08-24T07:37:43;34.30;78.10
38784;DHT22;24531;45.502;12.238;2023-08-24T07:40:09;34.50;77.90
38784;DHT22;24531;45.502;12.238;2023-08-24T07:42:45;34.70;77.60
38784;DHT22;24531;45.502;12.238;2023-08-24T07:45:12;34.90;77.10
38784;DHT22;24531;45.502;12.238;2023-08-24T07:47:38;35.10;76.20
38784;DHT22;24531;45.502;12.238;2023-08-24T07:50:03;35.40;75.40
38784;DHT22;24531;45.502;12.238;2023-08-24T07:52:29;35.50;75.10
38784;DHT22;24531;45.502;12.238;2023-08-24T07:54:55;35.80;74.60
38784;DHT22;24531;45.502;12.238;2023-08-24T07:57:24;36.00;74.50
38784;DHT22;24531;45.502;12.238;2023-08-24T07:59:51;36.30;74.30
38784;DHT22;24531;45.502;12.238;2023-08-24T08:02:18;36.50;73.90
38784;DHT22;24531;45.502;12.238;2023-08-24T08:04:43;36.70;72.90
38784;DHT22;24531;45.502;12.238;2023-08-24T08:07:09;37.00;72.30
38784;DHT22;24531;45.502;12.238;2023-08-24T08:09:36;37.30;71.10
38784;DHT22;24531;45.502;12.238;2023-08-24T08:12:02;37.80;71.70
38784;DHT22;24531;45.502;12.238;2023-08-24T08:14:29;38.20;69.10
38784;DHT22;24531;45.502;12.238;2023-08-24T08:16:54;38.70;67.80
38784;DHT22;24531;45.502;12.238;2023-08-24T08:19:20;39.10;66.60
38784;DHT22;24531;45.502;12.238;2023-08-24T08:21:47;39.60;65.90
38784;DHT22;24531;45.502;12.238;2023-08-24T08:24:12;40.10;65.10
38784;DHT22;24531;45.502;12.238;2023-08-24T08:26:38;40.60;64.40
38784;DHT22;24531;45.502;12.238;2023-08-24T08:29:04;41.10;63.70
38784;DHT22;24531;45.502;12.238;2023-08-24T08:31:30;41.50;62.40
38784;DHT22;24531;45.502;12.238;2023-08-24T08:33:56;41.90;61.80
38784;DHT22;24531;45.502;12.238;2023-08-24T08:36:22;42.20;60.40
38784;DHT22;24531;45.502;12.238;2023-08-24T08:38:48;42.70;59.40
38784;DHT22;24531;45.502;12.238;2023-08-24T08:41:15;42.90;59.30
38784;DHT22;24531;45.502;12.238;2023-08-24T08:43:42;43.20;57.80
38784;DHT22;24531;45.502;12.238;2023-08-24T08:46:08;43.30;57.70
38784;DHT22;24531;45.502;12.238;2023-08-24T08:48:35;43.70;57.20
38784;DHT22;24531;45.502;12.238;2023-08-24T08:51:01;44.00;56.70
38784;DHT22;24531;45.502;12.238;2023-08-24T08:53:28;44.10;55.70
38784;DHT22;24531;45.502;12.238;2023-08-24T08:55:56;44.50;54.80
38784;DHT22;24531;45.502;12.238;2023-08-24T08:58:28;44.70;54.20
38784;DHT22;24531;45.502;12.238;2023-08-24T09:00:55;45.00;54.00
38784;DHT22;24531;45.502;12.238;2023-08-24T09:03:22;45.20;53.60
38784;DHT22;24531;45.502;12.238;2023-08-24T09:05:48;45.40;52.90
38784;DHT22;24531;45.502;12.238;2023-08-24T09:08:19;45.60;52.70
38784;DHT22;24531;45.502;12.238;2023-08-24T09:10:45;45.80;52.00
38784;DHT22;24531;45.502;12.238;2023-08-24T09:13:11;46.10;53.10
38784;DHT22;24531;45.502;12.238;2023-08-24T09:15:36;46.30;51.90
38784;DHT22;24531;45.502;12.238;2023-08-24T09:18:02;46.60;50.80
38784;DHT22;24531;45.502;12.238;2023-08-24T09:20:29;46.80;50.60
38784;DHT22;24531;45.502;12.238;2023-08-24T09:22:55;46.90;49.90
38784;DHT22;24531;45.502;12.238;2023-08-24T09:25:23;47.10;49.50
38784;DHT22;24531;45.502;12.238;2023-08-24T09:27:58;47.20;49.50
38784;DHT22;24531;45.502;12.238;2023-08-24T09:30:29;47.50;49.20
38784;DHT22;24531;45.502;12.238;2023-08-24T09:32:55;47.70;49.20
38784;DHT22;24531;45.502;12.238;2023-08-24T09:35:21;47.90;49.10
38784;DHT22;24531;45.502;12.238;2023-08-24T09:37:49;48.10;48.50
38784;DHT22;24531;45.502;12.238;2023-08-24T09:40:15;48.30;47.40
38784;DHT22;24531;45.502;12.238;2023-08-24T09:42:42;48.30;47.40
38784;DHT22;24531;45.502;12.238;2023-08-24T09:45:11;48.40;47.00
38784;DHT22;24531;45.502;12.238;2023-08-24T09:47:37;48.40;46.60
38784;DHT22;24531;45.502;12.238;2023-08-24T09:50:04;48.60;46.80
38784;DHT22;24531;45.502;12.238;2023-08-24T09:52:34;48.80;46.30
38784;DHT22;24531;45.502;12.238;2023-08-24T09:55:04;48.80;45.70
38784;DHT22;24531;45.502;12.238;2023-08-24T09:57:38;49.00;45.40
38784;DHT22;24531;45.502;12.238;2023-08-24T10:00:08;49.10;45.10
38784;DHT22;24531;45.502;12.238;2023-08-24T10:03:00;49.40;45.10
38784;DHT22;24531;45.502;12.238;2023-08-24T10:05:27;49.60;44.70
38784;DHT22;24531;45.502;12.238;2023-08-24T10:07:55;49.60;44.30
38784;DHT22;24531;45.502;12.238;2023-08-24T10:10:30;49.50;44.50
38784;DHT22;24531;45.502;12.238;2023-08-24T10:13:14;49.30;44.70
38784;DHT22;24531;45.502;12.238;2023-08-24T10:15:43;49.10;45.10
38784;DHT22;24531;45.502;12.238;2023-08-24T10:18:15;48.40;44.70
38784;DHT22;24531;45.502;12.238;2023-08-24T10:20:42;47.50;45.20
38784;DHT22;24531;45.502;12.238;2023-08-24T10:23:11;46.30;45.70
38784;DHT22;24531;45.502;12.238;2023-08-24T10:25:37;45.30;46.70
38784;DHT22;24531;45.502;12.238;2023-08-24T10:28:04;44.60;47.80
38784;DHT22;24531;45.502;12.238;2023-08-24T10:30:35;44.10;48.10
38784;DHT22;24531;45.502;12.238;2023-08-24T10:33:02;43.60;48.70
38784;DHT22;24531;45.502;12.238;2023-08-24T10:35:28;43.30;49.00
38784;DHT22;24531;45.502;12.238;2023-08-24T10:37:53;43.00;49.40
38784;DHT22;24531;45.502;12.238;2023-08-24T10:40:43;42.80;50.00
38784;DHT22;24531;45.502;12.238;2023-08-24T10:43:10;42.50;50.60
38784;DHT22;24531;45.502;12.238;2023-08-24T10:45:57;42.40;51.40
38784;DHT22;24531;45.502;12.238;2023-08-24T10:53:56;41.90;51.80
38784;DHT22;24531;45.502;12.238;2023-08-24T10:56:36;41.70;51.30
38784;DHT22;24531;45.502;12.238;2023-08-24T10:59:16;41.50;51.90
38784;DHT22;24531;45.502;12.238;2023-08-24T11:02:02;41.40;52.20
38784;DHT22;24531;45.502;12.238;2023-08-24T11:04:29;41.40;52.60
38784;DHT22;24531;45.502;12.238;2023-08-24T11:06:56;41.40;52.90
38784;DHT22;24531;45.502;12.238;2023-08-24T11:09:24;41.20;53.20
38784;DHT22;24531;45.502;12.238;2023-08-24T11:12:01;41.20;53.80
38784;DHT22;24531;45.502;12.238;2023-08-24T11:14:29;41.10;53.40
38784;DHT22;24531;45.502;12.238;2023-08-24T11:17:17;41.00;52.90
38784;DHT22;24531;45.502;12.238;2023-08-24T11:19:56;40.90;53.60
38784;DHT22;24531;45.502;12.238;2023-08-24T11:22:22;40.80;53.50
38784;DHT22;24531;45.502;12.238;2023-08-24T11:24:47;40.80;53.60
38784;DHT22;24531;45.502;12.238;2023-08-24T11:27:16;40.70;53.30
38784;DHT22;24531;45.502;12.238;2023-08-24T11:29:42;40.70;53.20
38784;DHT22;24531;45.502;12.238;2023-08-24T11:32:08;40.70;53.40
38784;DHT22;24531;45.502;12.238;2023-08-24T11:34:34;40.80;53.50
38784;DHT22;24531;45.502;12.238;2023-08-24T11:37:01;40.80;53.60
38784;DHT22;24531;45.502;12.238;2023-08-24T11:39:27;40.70;53.20
38784;DHT22;24531;45.502;12.238;2023-08-24T11:42:04;40.60;53.20
38784;DHT22;24531;45.502;12.238;2023-08-24T11:44:45;40.50;53.10
38784;DHT22;24531;45.502;12.238;2023-08-24T11:47:14;40.30;53.50
38784;DHT22;24531;45.502;12.238;2023-08-24T11:49:40;40.20;53.80
38784;DHT22;24531;45.502;12.238;2023-08-24T11:52:06;40.30;53.90
38784;DHT22;24531;45.502;12.238;2023-08-24T11:54:32;40.30;53.80
38784;DHT22;24531;45.502;12.238;2023-08-24T11:56:58;40.30;54.10
38784;DHT22;24531;45.502;12.238;2023-08-24T11:59:24;40.10;53.80
38784;DHT22;24531;45.502;12.238;2023-08-24T12:01:51;40.00;53.40
38784;DHT22;24531;45.502;12.238;2023-08-24T12:04:18;40.00;53.60
38784;DHT22;24531;45.502;12.238;2023-08-24T12:06:44;39.90;53.60
38784;DHT22;24531;45.502;12.238;2023-08-24T12:09:09;39.90;53.60
38784;DHT22;24531;45.502;12.238;2023-08-24T12:11:36;39.90;53.80
38784;DHT22;24531;45.502;12.238;2023-08-24T12:14:02;39.90;53.80
38784;DHT22;24531;45.502;12.238;2023-08-24T12:16:31;39.90;53.70
38784;DHT22;24531;45.502;12.238;2023-08-24T12:18:59;40.00;53.60
38784;DHT22;24531;45.502;12.238;2023-08-24T12:21:26;39.90;53.50
38784;DHT22;24531;45.502;12.238;2023-08-24T12:26:22;39.70;53.90
38784;DHT22;24531;45.502;12.238;2023-08-24T12:28:51;39.70;54.00
38784;DHT22;24531;45.502;12.238;2023-08-24T12:31:18;39.80;54.20
38784;DHT22;24531;45.502;12.238;2023-08-24T12:33:44;39.80;54.10
38784;DHT22;24531;45.502;12.238;2023-08-24T12:36:10;39.90;53.90
38784;DHT22;24531;45.502;12.238;2023-08-24T12:38:36;39.80;53.80
38784;DHT22;24531;45.502;12.238;2023-08-24T12:41:02;39.80;54.10
38784;DHT22;24531;45.502;12.238;2023-08-24T12:43:28;39.90;54.20
38784;DHT22;24531;45.502;12.238;2023-08-24T12:45:53;39.90;54.50
38784;DHT22;24531;45.502;12.238;2023-08-24T12:48:19;39.90;55.10
38784;DHT22;24531;45.502;12.238;2023-08-24T12:50:44;39.90;54.80
38784;DHT22;24531;45.502;12.238;2023-08-24T12:53:10;39.90;54.90
38784;DHT22;24531;45.502;12.238;2023-08-24T12:55:39;39.90;54.80
38784;DHT22;24531;45.502;12.238;2023-08-24T12:58:05;39.90;54.90
38784;DHT22;24531;45.502;12.238;2023-08-24T13:00:31;39.90;54.80
38784;DHT22;24531;45.502;12.238;2023-08-24T13:02:57;40.00;54.90
38784;DHT22;24531;45.502;12.238;2023-08-24T13:05:23;40.00;55.00
38784;DHT22;24531;45.502;12.238;2023-08-24T13:07:48;40.00;55.30
38784;DHT22;24531;45.502;12.238;2023-08-24T13:10:14;39.90;55.20
38784;DHT22;24531;45.502;12.238;2023-08-24T13:12:40;39.80;55.20
38784;DHT22;24531;45.502;12.238;2023-08-24T13:15:06;39.90;55.10
38784;DHT22;24531;45.502;12.238;2023-08-24T13:17:32;40.00;55.00
38784;DHT22;24531;45.502;12.238;2023-08-24T13:19:58;39.90;55.00
38784;DHT22;24531;45.502;12.238;2023-08-24T13:22:24;39.90;54.90
38784;DHT22;24531;45.502;12.238;2023-08-24T13:24:49;39.90;55.00
38784;DHT22;24531;45.502;12.238;2023-08-24T13:27:15;39.70;55.10
38784;DHT22;24531;45.502;12.238;2023-08-24T13:29:41;39.60;55.50
38784;DHT22;24531;45.502;12.238;2023-08-24T13:32:07;39.60;55.60
38784;DHT22;24531;45.502;12.238;2023-08-24T13:34:33;39.50;55.40
38784;DHT22;24531;45.502;12.238;2023-08-24T13:36:58;39.50;55.60
38784;DHT22;24531;45.502;12.238;2023-08-24T13:39:27;39.50;55.90
38784;DHT22;24531;45.502;12.238;2023-08-24T13:41:59;39.30;56.30
38784;DHT22;24531;45.502;12.238;2023-08-24T13:44:25;39.20;56.70
38784;DHT22;24531;45.502;12.238;2023-08-24T13:46:51;39.20;56.50
38784;DHT22;24531;45.502;12.238;2023-08-24T13:49:19;39.20;56.30
38784;DHT22;24531;45.502;12.238;2023-08-24T13:51:45;39.20;56.00
38784;DHT22;24531;45.502;12.238;2023-08-24T13:54:18;39.20;56.10
38784;DHT22;24531;45.502;12.238;2023-08-24T13:56:45;39.30;55.80
38784;DHT22;24531;45.502;12.238;2023-08-24T13:59:12;39.20;55.60
38784;DHT22;24531;45.502;12.238;2023-08-24T14:01:38;39.20;55.20
38784;DHT22;24531;45.502;12.238;2023-08-24T14:04:04;39.20;55.30
38784;DHT22;24531;45.502;12.238;2023-08-24T14:06:32;39.30;55.40
38784;DHT22;24531;45.502;12.238;2023-08-24T14:09:00;39.30;55.60
38784;DHT22;24531;45.502;12.238;2023-08-24T14:11:25;39.40;55.60
38784;DHT22;24531;45.502;12.238;2023-08-24T14:13:51;39.50;55.40
38784;DHT22;24531;45.502;12.238;2023-08-24T14:16:18;39.50;55.00
38784;DHT22;24531;45.502;12.238;2023-08-24T14:18:45;39.50;55.40
38784;DHT22;24531;45.502;12.238;2023-08-24T14:21:10;39.30;55.20
38784;DHT22;24531;45.502;12.238;2023-08-24T14:23:36;39.20;55.40
38784;DHT22;24531;45.502;12.238;2023-08-24T14:26:02;39.20;55.50
38784;DHT22;24531;45.502;12.238;2023-08-24T14:31:12;39.00;56.10
38784;DHT22;24531;45.502;12.238;2023-08-24T14:33:38;39.00;55.20
38784;DHT22;24531;45.502;12.238;2023-08-24T14:36:03;39.00;54.70
38784;DHT22;24531;45.502;12.238;2023-08-24T14:38:29;38.90;54.40
38784;DHT22;24531;45.502;12.238;2023-08-24T14:40:54;38.80;54.60
38784;DHT22;24531;45.502;12.238;2023-08-24T14:43:20;38.80;54.50
38784;DHT22;24531;45.502;12.238;2023-08-24T14:45:46;38.80;54.50
38784;DHT22;24531;45.502;12.238;2023-08-24T14:48:11;38.80;54.50
38784;DHT22;24531;45.502;12.238;2023-08-24T14:50:40;38.80;54.40
38784;DHT22;24531;45.502;12.238;2023-08-24T14:53:05;38.90;54.50
38784;DHT22;24531;45.502;12.238;2023-08-24T14:55:31;38.90;54.20
38784;DHT22;24531;45.502;12.238;2023-08-24T14:57:57;38.80;53.80
38784;DHT22;24531;45.502;12.238;2023-08-24T15:00:24;38.80;53.90
38784;DHT22;24531;45.502;12.238;2023-08-24T15:02:50;38.80;54.20
38784;DHT22;24531;45.502;12.238;2023-08-24T15:05:16;38.70;53.30
38784;DHT22;24531;45.502;12.238;2023-08-24T15:07:41;38.70;53.30
38784;DHT22;24531;45.502;12.238;2023-08-24T15:10:07;38.60;53.10
38784;DHT22;24531;45.502;12.238;2023-08-24T15:12:33;38.50;53.00
38784;DHT22;24531;45.502;12.238;2023-08-24T15:15:00;38.50;53.10
38784;DHT22;24531;45.502;12.238;2023-08-24T15:17:28;38.50;53.00
38784;DHT22;24531;45.502;12.238;2023-08-24T15:19:55;38.40;52.80
38784;DHT22;24531;45.502;12.238;2023-08-24T15:22:25;38.40;52.90
38784;DHT22;24531;45.502;12.238;2023-08-24T15:24:59;38.30;52.80
38784;DHT22;24531;45.502;12.238;2023-08-24T15:27:25;38.30;53.10
38784;DHT22;24531;45.502;12.238;2023-08-24T15:29:50;38.30;53.50